Time;durP1;ratioP1;P1;durP2;ratioP2;P2;SDS_P1;SDS_P2;PMS_P1;PMS_P2;Temp;Humidity;BMP_temperature;BMP_pressure;BME280_temperature;BME280_humidity;BME280_pressure;Samples;Min_cycle;Max_cycle;Signal;HPM_P1;HPM_P2
2023/08/16 00:00:16;;;;;;;6.33;4.23;;;21.20;99.90;;;;;;5067601;28;20536;-52
2023/08/16 00:02:44;;;;;;;8.90;4.60;;;21.20;99.90;;;;;;5075376;28;20515;-52
2023/08/16 00:05:11;;;;;;;6.23;4.80;;;21.20;99.90;;;;;;5071201;28;20464;-52
2023/08/16 00:07:38;;;;;;;6.10;4.30;;;21.20;99.90;;;;;;5066778;28;20464;-52
2023/08/16 00:10:09;;;;;;;6.40;4.70;;;21.20;99.90;;;;;;5063913;28;20966;-52
2023/08/16 00:12:36;;;;;;;5.13;4.00;;;21.20;99.90;;;;;;5067853;28;20458;-52
2023/08/16 00:15:02;;;;;;;10.93;4.30;;;21.10;99.90;;;;;;5071756;28;21010;-53
2023/08/16 00:17:29;;;;;;;11.53;4.27;;;21.20;99.90;;;;;;5072565;28;20573;-53
2023/08/16 00:19:56;;;;;;;5.70;3.80;;;21.10;99.90;;;;;;5073777;28;20519;-52
2023/08/16 00:22:23;;;;;;;6.70;4.50;;;21.10;99.90;;;;;;5070017;28;20534;-52
2023/08/16 00:24:50;;;;;;;5.53;4.13;;;21.20;99.90;;;;;;5071510;28;21045;-52
2023/08/16 00:27:16;;;;;;;7.60;4.03;;;21.10;99.90;;;;;;5061706;28;20573;-52
2023/08/16 00:29:43;;;;;;;7.77;4.20;;;21.20;99.90;;;;;;5069318;28;20974;-52
2023/08/16 00:32:11;;;;;;;6.50;4.20;;;21.20;99.90;;;;;;5069541;28;20549;-52
2023/08/16 00:34:37;;;;;;;6.30;4.43;;;21.10;99.90;;;;;;5068962;28;20457;-52
2023/08/16 00:37:05;;;;;;;5.23;4.00;;;21.10;99.90;;;;;;5073931;28;20572;-52
2023/08/16 00:39:32;;;;;;;5.03;3.83;;;21.10;99.90;;;;;;5073166;28;20484;-53
2023/08/16 00:41:59;;;;;;;7.03;3.80;;;21.10;99.90;;;;;;5064003;28;20449;-53
2023/08/16 00:44:25;;;;;;;4.80;4.40;;;21.10;99.90;;;;;;5067694;28;20457;-53
2023/08/16 00:46:53;;;;;;;5.23;3.87;;;21.00;99.90;;;;;;5064824;28;20561;-52
2023/08/16 00:49:20;;;;;;;7.80;4.50;;;21.00;99.90;;;;;;5056180;28;20963;-55
2023/08/16 00:51:47;;;;;;;4.67;4.13;;;21.00;1.40;;;;;;5073382;28;20536;-52
2023/08/16 00:54:15;;;;;;;4.90;4.40;;;21.00;99.90;;;;;;5072479;28;20548;-53
2023/08/16 00:56:41;;;;;;;4.73;4.13;;;21.00;99.90;;;;;;5073393;28;20511;-53
2023/08/16 00:59:08;;;;;;;6.00;4.50;;;20.90;99.90;;;;;;5070687;28;20564;-53
2023/08/16 01:01:34;;;;;;;5.77;4.50;;;20.90;99.90;;;;;;5057855;28;20975;-52
2023/08/16 01:04:02;;;;;;;13.27;5.17;;;20.90;99.90;;;;;;5070320;28;21009;-52
2023/08/16 01:06:28;;;;;;;5.20;4.60;;;20.80;99.90;;;;;;5072403;28;20916;-52
2023/08/16 01:08:55;;;;;;;4.70;4.27;;;20.90;99.90;;;;;;5073749;28;21006;-52
2023/08/16 01:11:29;;;;;;;8.70;4.60;;;20.80;99.90;;;;;;5071745;28;20556;-52
2023/08/16 01:14:01;;;;;;;5.63;4.90;;;20.80;99.90;;;;;;5070283;28;20580;-52
2023/08/16 01:16:29;;;;;;;10.10;5.00;;;20.80;99.90;;;;;;5073551;28;20433;-53
2023/08/16 01:18:58;;;;;;;10.80;4.97;;;20.80;99.90;;;;;;5070134;28;22260;-53
2023/08/16 01:21:25;;;;;;;9.63;5.10;;;20.70;99.90;;;;;;5070377;28;20543;-52
2023/08/16 01:24:05;;;;;;;5.73;5.13;;;20.80;99.90;;;;;;5067708;28;20899;-52
2023/08/16 01:26:35;;;;;;;5.33;4.83;;;20.80;99.90;;;;;;5071690;28;20575;-53
2023/08/16 01:29:03;;;;;;;6.50;5.57;;;20.70;99.90;;;;;;5069201;28;20555;-52
2023/08/16 01:31:30;;;;;;;8.07;5.40;;;20.70;99.90;;;;;;5072283;28;20548;-52
2023/08/16 01:33:59;;;;;;;5.97;4.93;;;20.80;99.90;;;;;;5063272;28;20560;-52
2023/08/16 01:36:26;;;;;;;6.93;5.20;;;20.70;99.90;;;;;;5066676;28;20829;-52
2023/08/16 01:38:53;;;;;;;8.40;5.87;;;20.70;99.90;;;;;;5061262;28;20552;-52
2023/08/16 01:41:24;;;;;;;6.00;5.50;;;20.70;99.90;;;;;;5058176;28;20958;-52
2023/08/16 01:43:55;;;;;;;6.30;5.50;;;20.60;99.90;;;;;;5070908;28;20542;-53
2023/08/16 01:46:23;;;;;;;15.13;6.07;;;20.60;99.90;;;;;;5070869;28;21091;-53
2023/08/16 01:48:51;;;;;;;9.30;6.03;;;20.60;99.90;;;;;;5063994;28;20882;-52
2023/08/16 01:51:18;;;;;;;7.80;5.87;;;20.50;99.90;;;;;;5063080;28;20500;-53
2023/08/16 01:53:50;;;;;;;9.37;6.30;;;20.60;99.90;;;;;;5071229;28;20492;-52
2023/08/16 01:56:17;;;;;;;7.20;5.70;;;20.50;99.90;;;;;;5068290;28;20438;-53
2023/08/16 01:58:44;;;;;;;8.13;5.90;;;20.50;99.90;;;;;;5063250;28;20555;-53
2023/08/16 02:01:11;;;;;;;10.00;6.57;;;20.50;99.90;;;;;;5061082;28;20473;-52
2023/08/16 02:03:38;;;;;;;21.17;7.10;;;20.50;99.90;;;;;;5063240;28;20543;-53
2023/08/16 02:06:04;;;;;;;7.60;5.90;;;20.50;99.90;;;;;;5063570;28;20930;-53
2023/08/16 02:08:31;;;;;;;6.17;5.57;;;20.40;99.90;;;;;;5071318;28;20560;-52
2023/08/16 02:10:57;;;;;;;8.07;6.20;;;20.40;99.90;;;;;;5062528;28;20501;-52
2023/08/16 02:13:24;;;;;;;11.33;6.70;;;20.40;99.90;;;;;;5071736;28;20608;-52
2023/08/16 02:15:58;;;;;;;9.17;6.27;;;20.40;99.90;;;;;;5070382;28;20543;-52
2023/08/16 02:18:26;;;;;;;23.03;6.30;;;20.40;99.90;;;;;;5072205;28;20559;-52
2023/08/16 02:20:53;;;;;;;7.90;6.00;;;20.40;99.90;;;;;;5067319;28;20461;-52
2023/08/16 02:23:19;;;;;;;17.10;6.47;;;20.40;99.90;;;;;;5063057;28;20461;-52
2023/08/16 02:25:46;;;;;;;10.23;6.40;;;20.50;99.90;;;;;;5071489;28;20468;-52
2023/08/16 02:28:12;;;;;;;8.57;7.63;;;20.50;99.90;;;;;;5063203;28;21044;-53
2023/08/16 02:30:39;;;;;;;7.90;7.10;;;20.40;99.90;;;;;;5071172;28;20456;-53
2023/08/16 02:33:05;;;;;;;7.83;6.60;;;20.40;99.90;;;;;;5063944;28;20544;-53
2023/08/16 02:35:33;;;;;;;10.30;7.50;;;20.50;99.90;;;;;;5057894;28;20481;-52
2023/08/16 02:38:00;;;;;;;7.43;6.67;;;20.40;99.90;;;;;;5063556;28;20545;-52
2023/08/16 02:40:26;;;;;;;14.70;7.83;;;20.40;99.90;;;;;;5071547;28;20557;-54
2023/08/16 02:42:53;;;;;;;7.63;6.90;;;20.40;99.90;;;;;;5070886;28;20488;-52
2023/08/16 02:45:19;;;;;;;8.97;6.70;;;20.40;99.90;;;;;;5066513;28;20481;-53
2023/08/16 02:47:46;;;;;;;8.13;7.27;;;20.40;99.90;;;;;;5070985;28;20484;-52
2023/08/16 02:50:13;;;;;;;9.60;6.37;;;20.40;99.90;;;;;;5068423;28;21047;-53
2023/08/16 02:52:41;;;;;;;12.27;6.40;;;20.40;99.90;;;;;;5070961;28;21054;-53
2023/08/16 02:55:08;;;;;;;11.23;7.60;;;20.40;99.90;;;;;;5067439;28;20492;-53
2023/08/16 02:57:35;;;;;;;11.73;7.40;;;20.40;99.90;;;;;;5056521;28;20457;-52
2023/08/16 03:00:02;;;;;;;12.73;7.17;;;20.40;99.90;;;;;;5051805;28;20929;-53
2023/08/16 03:02:29;;;;;;;12.00;6.77;;;20.40;99.90;;;;;;5067633;28;20483;-52
2023/08/16 03:04:56;;;;;;;16.73;7.73;;;20.40;99.90;;;;;;5069680;28;20483;-52
2023/08/16 03:07:22;;;;;;;9.43;7.90;;;20.30;99.90;;;;;;5070165;28;20987;-53
2023/08/16 03:09:50;;;;;;;14.87;7.60;;;20.30;99.90;;;;;;5072144;28;20480;-52
2023/08/16 03:12:16;;;;;;;8.20;7.40;;;20.30;99.90;;;;;;5069426;28;20548;-52
2023/08/16 03:14:43;;;;;;;9.50;7.97;;;20.30;99.90;;;;;;5070297;28;21006;-53
2023/08/16 03:17:10;;;;;;;9.23;7.93;;;20.30;99.90;;;;;;5063025;28;20575;-53
2023/08/16 03:19:37;;;;;;;11.10;7.90;;;20.30;99.90;;;;;;5064173;28;20434;-53
2023/08/16 03:22:03;;;;;;;7.87;7.07;;;20.30;99.90;;;;;;5065564;28;20556;-53
2023/08/16 03:24:30;;;;;;;9.50;8.57;;;20.30;99.90;;;;;;5069954;28;20547;-52
2023/08/16 03:26:58;;;;;;;8.80;7.70;;;20.30;99.90;;;;;;5071484;28;20512;-53
2023/08/16 03:29:24;;;;;;;9.13;7.83;;;20.30;99.90;;;;;;5064478;28;20533;-53
2023/08/16 03:31:51;;;;;;;7.57;6.83;;;20.20;99.90;;;;;;5068722;28;20670;-53
2023/08/16 03:34:18;;;;;;;10.63;7.30;;;20.30;99.90;;;;;;5068921;28;20550;-53
2023/08/16 03:36:44;;;;;;;12.37;7.57;;;20.20;99.90;;;;;;5072968;28;20559;-53
2023/08/16 03:39:11;;;;;;;8.93;7.70;;;20.20;99.90;;;;;;5071015;28;20456;-53
2023/08/16 03:41:38;;;;;;;9.87;7.10;;;20.20;99.90;;;;;;5076478;28;20544;-52
2023/08/16 03:44:07;;;;;;;8.40;7.60;;;20.10;99.90;;;;;;5070985;28;20571;-52
2023/08/16 03:46:33;;;;;;;9.93;9.00;;;20.10;99.90;;;;;;5074285;28;20484;-51
2023/08/16 03:49:00;;;;;;;8.90;8.00;;;20.10;99.90;;;;;;5074414;28;20997;-52
2023/08/16 03:51:26;;;;;;;10.67;7.67;;;20.10;99.90;;;;;;5076195;28;20990;-52
2023/08/16 03:53:53;;;;;;;8.67;7.00;;;20.00;99.90;;;;;;5077456;28;20471;-52
2023/08/16 03:56:19;;;;;;;9.67;7.90;;;20.00;99.90;;;;;;5075313;28;20602;-52
2023/08/16 03:58:46;;;;;;;8.90;7.90;;;20.00;99.90;;;;;;5077031;28;20537;-51
2023/08/16 04:01:14;;;;;;;8.00;7.20;;;20.00;99.90;;;;;;5076584;28;20460;-52
2023/08/16 04:03:40;;;;;;;8.53;7.43;;;20.00;99.90;;;;;;5061184;28;20943;-52
2023/08/16 04:06:11;;;;;;;8.30;7.50;;;20.00;99.90;;;;;;5062711;28;20547;-53
2023/08/16 04:08:38;;;;;;;9.57;7.70;;;19.90;99.90;;;;;;5078241;28;20491;-51
2023/08/16 04:11:04;;;;;;;10.37;8.20;;;19.90;99.90;;;;;;5075562;28;20461;-53
2023/08/16 04:13:31;;;;;;;14.70;7.97;;;20.00;99.90;;;;;;5074495;28;20488;-52
2023/08/16 04:15:57;;;;;;;9.37;8.43;;;19.90;99.90;;;;;;5075105;28;20572;-54
2023/08/16 04:18:25;;;;;;;10.70;8.63;;;20.00;99.90;;;;;;5070155;28;20575;-51
2023/08/16 04:20:52;;;;;;;10.87;9.40;;;20.00;99.90;;;;;;5073665;28;20544;-51
2023/08/16 04:23:19;;;;;;;12.50;9.60;;;20.00;99.90;;;;;;5076615;28;20469;-53
2023/08/16 04:25:46;;;;;;;30.43;11.60;;;20.00;99.90;;;;;;5076368;28;20503;-52
2023/08/16 04:28:12;;;;;;;14.40;11.07;;;20.00;99.90;;;;;;5072319;28;21045;-52
2023/08/16 04:30:39;;;;;;;14.07;10.97;;;20.00;99.90;;;;;;5072153;28;20504;-53
2023/08/16 04:33:05;;;;;;;20.63;12.80;;;20.00;99.90;;;;;;5076401;28;20504;-51
2023/08/16 04:35:33;;;;;;;16.33;11.40;;;20.00;99.90;;;;;;5073697;28;20500;-53
2023/08/16 04:37:59;;;;;;;12.37;10.90;;;20.00;99.90;;;;;;5069754;28;20508;-51
2023/08/16 04:40:26;;;;;;;15.67;11.90;;;20.00;99.90;;;;;;5075535;28;20472;-50
2023/08/16 04:42:52;;;;;;;19.00;12.03;;;20.00;99.90;;;;;;5076297;28;20484;-51
2023/08/16 04:45:19;;;;;;;22.07;12.20;;;20.00;99.90;;;;;;5066435;28;20486;-53
2023/08/16 04:47:46;;;;;;;15.10;12.60;;;20.00;99.90;;;;;;5069079;28;20480;-52
2023/08/16 04:50:12;;;;;;;15.67;12.43;;;20.00;99.90;;;;;;5074217;28;20457;-51
2023/08/16 04:52:40;;;;;;;19.03;12.43;;;20.00;99.90;;;;;;5073271;28;21013;-52
2023/08/16 04:55:07;;;;;;;27.53;13.47;;;20.00;99.90;;;;;;5073316;28;20476;-52
2023/08/16 04:57:34;;;;;;;31.83;13.50;;;19.90;99.90;;;;;;5074103;28;20452;-53
2023/08/16 05:00:06;;;;;;;33.60;13.57;;;19.90;99.90;;;;;;5073080;28;20905;-52
2023/08/16 05:02:33;;;;;;;16.70;12.77;;;19.90;99.90;;;;;;5065175;28;20456;-51
2023/08/16 05:04:59;;;;;;;62.63;12.93;;;20.00;99.90;;;;;;5073290;28;20544;-52
2023/08/16 05:07:26;;;;;;;95.90;13.70;;;20.00;99.90;;;;;;5073337;28;20567;-52
2023/08/16 05:09:54;;;;;;;18.00;12.77;;;19.90;99.90;;;;;;5064451;28;20807;-52
2023/08/16 05:12:20;;;;;;;59.10;13.10;;;20.00;99.90;;;;;;5063256;28;20548;-52
2023/08/16 05:14:47;;;;;;;26.00;13.40;;;20.00;99.90;;;;;;5053088;28;21000;-52
2023/08/16 05:17:13;;;;;;;30.90;12.77;;;20.00;99.90;;;;;;5064158;28;20508;-53
2023/08/16 05:19:40;;;;;;;17.80;12.03;;;20.00;99.90;;;;;;5072212;28;20488;-52
2023/08/16 05:22:06;;;;;;;13.30;12.10;;;20.00;99.90;;;;;;5068661;28;20892;-52
2023/08/16 05:24:33;;;;;;;13.87;11.50;;;20.00;99.90;;;;;;5071141;28;20493;-55
2023/08/16 05:27:01;;;;;;;14.03;12.10;;;20.00;99.90;;;;;;5069477;28;20480;-53
2023/08/16 05:29:27;;;;;;;12.53;10.70;;;20.10;99.90;;;;;;5071932;28;20548;-52
2023/08/16 05:31:53;;;;;;;15.63;10.60;;;20.10;99.90;;;;;;5071834;28;20504;-53
2023/08/16 05:34:20;;;;;;;11.67;10.10;;;20.10;99.90;;;;;;5070270;28;20547;-52
2023/08/16 05:36:48;;;;;;;21.57;10.67;;;20.10;99.90;;;;;;5070476;28;21054;-53
2023/08/16 05:39:14;;;;;;;13.23;9.13;;;20.10;99.90;;;;;;5073018;28;20512;-53
2023/08/16 05:41:41;;;;;;;12.10;10.20;;;20.20;99.90;;;;;;5065076;28;20541;-52
2023/08/16 05:44:09;;;;;;;11.80;10.20;;;20.10;99.90;;;;;;5072352;28;20986;-53
2023/08/16 05:46:35;;;;;;;14.20;10.13;;;20.20;99.90;;;;;;5071674;28;20540;-53
2023/08/16 05:49:02;;;;;;;10.07;8.20;;;20.20;99.90;;;;;;5070100;28;20482;-52
2023/08/16 05:51:29;;;;;;;11.07;8.07;;;20.30;99.90;;;;;;5070326;28;20862;-52
2023/08/16 05:53:55;;;;;;;10.33;8.20;;;20.30;99.90;;;;;;5072216;28;20531;-53
2023/08/16 05:56:22;;;;;;;8.00;7.20;;;20.30;99.90;;;;;;5073221;28;20494;-53
2023/08/16 05:58:48;;;;;;;8.80;7.30;;;20.30;99.90;;;;;;5072512;28;21056;-52
2023/08/16 06:01:16;;;;;;;9.63;7.07;;;20.30;99.90;;;;;;5071972;28;20540;-52
2023/08/16 06:03:43;;;;;;;9.47;6.50;;;20.30;99.90;;;;;;5063642;28;20537;-53
2023/08/16 06:06:09;;;;;;;10.83;5.93;;;20.30;99.90;;;;;;5060428;28;20493;-53
2023/08/16 06:08:36;;;;;;;6.93;6.23;;;20.20;99.90;;;;;;5071572;28;21115;-52
2023/08/16 06:11:02;;;;;;;7.57;5.50;;;20.20;99.90;;;;;;5071926;28;20544;-51
2023/08/16 06:13:29;;;;;;;10.23;6.70;;;20.30;99.90;;;;;;5057890;28;20843;-52
2023/08/16 06:15:55;;;;;;;9.00;5.70;;;20.30;99.90;;;;;;5052392;28;20537;-53
2023/08/16 06:18:23;;;;;;;8.03;6.13;;;20.40;99.90;;;;;;5052304;28;20500;-52
2023/08/16 06:20:50;;;;;;;7.90;5.50;;;20.40;99.90;;;;;;5058927;28;20552;-52
2023/08/16 06:23:16;;;;;;;6.53;4.40;;;20.40;99.90;;;;;;5068057;28;20785;-52
2023/08/16 06:25:43;;;;;;;7.17;4.80;;;20.40;99.90;;;;;;5065310;28;20515;-52
2023/08/16 06:28:10;;;;;;;8.17;4.90;;;20.30;99.90;;;;;;5062757;28;20519;-52
2023/08/16 06:30:36;;;;;;;8.40;4.60;;;20.40;99.90;;;;;;5069942;28;20465;-52
2023/08/16 06:33:03;;;;;;;5.33;4.53;;;20.40;99.90;;;;;;5070478;28;20497;-53
2023/08/16 06:35:32;;;;;;;5.47;4.63;;;20.40;99.90;;;;;;5069093;28;20616;-52
2023/08/16 06:38:00;;;;;;;6.20;5.60;;;20.40;99.90;;;;;;5069614;28;20481;-53
2023/08/16 06:40:26;;;;;;;9.67;4.53;;;20.40;99.90;;;;;;5069373;28;20460;-53
2023/08/16 06:42:53;;;;;;;6.97;4.70;;;20.50;99.90;;;;;;5064440;28;20493;-52
2023/08/16 06:45:19;;;;;;;7.90;4.93;;;20.50;99.90;;;;;;5069047;28;20552;-52
2023/08/16 06:47:47;;;;;;;6.60;4.20;;;20.60;99.90;;;;;;5069599;28;20492;-52
2023/08/16 06:50:14;;;;;;;8.27;5.00;;;20.70;99.90;;;;;;5071199;28;20935;-52
2023/08/16 06:52:42;;;;;;;9.80;5.13;;;20.80;99.90;;;;;;5070304;28;20457;-52
2023/08/16 06:55:09;;;;;;;8.07;4.37;;;21.00;99.90;;;;;;5066807;28;20461;-52
2023/08/16 06:57:36;;;;;;;6.20;4.83;;;21.00;99.90;;;;;;5067471;28;20605;-52
2023/08/16 07:00:04;;;;;;;7.00;4.37;;;21.10;99.90;;;;;;5070988;28;20547;-52
2023/08/16 07:02:30;;;;;;;6.40;4.33;;;21.20;99.90;;;;;;5071291;28;20452;-52
2023/08/16 07:04:57;;;;;;;5.20;4.10;;;21.30;99.90;;;;;;5070358;28;20483;-52
2023/08/16 07:07:23;;;;;;;6.33;4.20;;;21.30;99.90;;;;;;5071767;28;20540;-51
2023/08/16 07:09:51;;;;;;;7.60;5.10;;;21.30;99.90;;;;;;5054291;28;21011;-52
2023/08/16 07:12:18;;;;;;;8.03;4.67;;;21.40;99.90;;;;;;5071270;28;20997;-53
2023/08/16 07:14:44;;;;;;;8.97;4.70;;;21.40;99.90;;;;;;5070232;28;20520;-52
2023/08/16 07:17:11;;;;;;;6.10;4.43;;;21.40;99.90;;;;;;5070891;28;20507;-52
2023/08/16 07:19:37;;;;;;;9.77;4.60;;;21.50;99.90;;;;;;5056055;28;20516;-52
2023/08/16 07:22:04;;;;;;;6.50;4.70;;;21.50;99.90;;;;;;5069057;28;21881;-53
2023/08/16 07:24:30;;;;;;;8.63;4.27;;;21.60;99.90;;;;;;5056414;28;20474;-52
2023/08/16 07:26:58;;;;;;;7.17;4.13;;;21.60;99.90;;;;;;5065191;28;20517;-51
2023/08/16 07:29:25;;;;;;;8.30;4.63;;;21.70;99.90;;;;;;5065250;28;20575;-52
2023/08/16 07:31:54;;;;;;;8.00;4.10;;;21.80;99.90;;;;;;5067500;28;20586;-52
2023/08/16 07:34:20;;;;;;;12.57;5.10;;;21.80;99.90;;;;;;5067939;28;20459;-52
2023/08/16 07:36:47;;;;;;;7.03;4.20;;;21.80;99.90;;;;;;5069407;28;20480;-51
2023/08/16 07:39:13;;;;;;;7.67;4.20;;;21.80;99.90;;;;;;5070995;28;20520;-53
2023/08/16 07:41:40;;;;;;;6.37;4.13;;;21.90;99.90;;;;;;5069461;28;22168;-53
2023/08/16 07:44:09;;;;;;;7.87;4.67;;;21.90;99.90;;;;;;5067072;28;20453;-52
2023/08/16 07:46:35;;;;;;;5.90;3.90;;;21.90;99.90;;;;;;5070648;28;20455;-52
2023/08/16 07:49:02;;;;;;;6.60;4.10;;;21.90;99.90;;;;;;5068218;28;20575;-52
2023/08/16 07:51:29;;;;;;;5.13;3.70;;;22.00;99.90;;;;;;5064222;28;20506;-52
2023/08/16 07:53:55;;;;;;;6.80;4.03;;;22.00;99.90;;;;;;5069588;28;20468;-54
2023/08/16 07:56:21;;;;;;;7.90;4.37;;;22.10;99.90;;;;;;5071498;28;20516;-53
2023/08/16 07:58:48;;;;;;;7.90;4.00;;;22.00;99.90;;;;;;5071178;28;20532;-52
2023/08/16 08:01:16;;;;;;;5.33;4.20;;;22.00;99.90;;;;;;5070397;28;21009;-52
2023/08/16 08:03:42;;;;;;;6.90;4.30;;;22.10;99.90;;;;;;5069201;28;20460;-53
2023/08/16 08:06:09;;;;;;;13.07;4.70;;;22.20;99.90;;;;;;5062834;28;21033;-52
2023/08/16 08:08:36;;;;;;;6.20;3.90;;;22.10;85.00;;;;;;5063928;28;20485;-53
2023/08/16 08:11:02;;;;;;;4.57;4.17;;;22.20;98.80;;;;;;5057424;28;20555;-52
2023/08/16 08:13:29;;;;;;;7.67;4.50;;;22.30;99.90;;;;;;5072283;28;20512;-52
2023/08/16 08:15:55;;;;;;;6.30;4.83;;;22.50;99.90;;;;;;5074736;28;20523;-53
2023/08/16 08:18:23;;;;;;;12.30;4.70;;;22.50;21.20;;;;;;5074570;28;20709;-53
2023/08/16 08:20:50;;;;;;;8.40;4.43;;;22.50;33.80;;;;;;5074251;28;20465;-53
2023/08/16 08:23:16;;;;;;;5.90;4.57;;;22.40;35.90;;;;;;5072770;28;20907;-52
2023/08/16 08:25:44;;;;;;;8.70;3.77;;;22.30;25.70;;;;;;5074259;28;20479;-52
2023/08/16 08:28:10;;;;;;;7.30;4.00;;;22.40;28.30;;;;;;5074283;28;20492;-52
2023/08/16 08:30:37;;;;;;;10.30;4.40;;;22.50;25.70;;;;;;5074055;28;20568;-53
2023/08/16 08:33:04;;;;;;;5.20;3.87;;;22.60;47.00;;;;;;5074269;28;21785;-52
2023/08/16 08:35:34;;;;;;;8.40;4.00;;;22.60;54.40;;;;;;5071931;28;20456;-52
2023/08/16 08:38:00;;;;;;;5.33;4.03;;;22.60;63.30;;;;;;5073200;28;20484;-51
2023/08/16 08:40:30;;;;;;;5.47;3.53;;;22.70;60.30;;;;;;5073383;28;20498;-52
2023/08/16 08:42:59;;;;;;;6.07;3.83;;;22.80;65.90;;;;;;5072844;28;20543;-52
2023/08/16 08:45:26;;;;;;;7.07;3.90;;;23.00;63.90;;;;;;5059916;28;20532;-52
2023/08/16 08:47:54;;;;;;;7.47;4.13;;;23.10;71.30;;;;;;5064211;28;20515;-52
2023/08/16 08:50:21;;;;;;;8.97;3.30;;;23.20;76.70;;;;;;5071651;28;21022;-50
2023/08/16 08:52:51;;;;;;;5.27;3.63;;;23.20;99.90;;;;;;5072026;28;20514;-53
2023/08/16 08:55:19;;;;;;;6.93;3.70;;;23.20;99.90;;;;;;5071962;28;20561;-52
2023/08/16 08:57:50;;;;;;;8.73;3.90;;;23.30;96.30;;;;;;5070646;28;20484;-52
2023/08/16 09:00:19;;;;;;;6.20;3.67;;;23.50;99.90;;;;;;5073338;28;20452;-51
2023/08/16 09:02:48;;;;;;;5.67;3.13;;;23.70;99.90;;;;;;5072481;28;20531;-52
2023/08/16 09:05:18;;;;;;;5.30;3.33;;;23.80;99.90;;;;;;5065754;28;20467;-52
2023/08/16 09:07:45;;;;;;;6.90;3.40;;;23.90;99.90;;;;;;5070913;28;20524;-52
2023/08/16 09:10:14;;;;;;;4.43;3.10;;;24.00;99.90;;;;;;5065411;28;20560;-52
2023/08/16 09:12:40;;;;;;;5.50;2.80;;;24.20;99.90;;;;;;5071309;28;20461;-51
2023/08/16 09:15:08;;;;;;;3.00;2.80;;;24.40;99.90;;;;;;5073206;28;20509;-52
2023/08/16 09:17:35;;;;;;;3.90;2.97;;;24.60;99.90;;;;;;5084961;22;20508;-51
2023/08/16 09:20:05;;;;;;;7.63;3.20;;;24.90;99.90;;;;;;5053809;28;20714;-52
2023/08/16 09:22:32;;;;;;;7.30;3.90;;;25.50;99.90;;;;;;5050233;28;20454;-53
2023/08/16 09:24:58;;;;;;;5.43;3.90;;;26.00;99.90;;;;;;5052574;28;20884;-53
2023/08/16 09:27:28;;;;;;;4.13;3.70;;;26.20;99.90;;;;;;5050507;28;20983;-51
2023/08/16 09:29:55;;;;;;;7.23;3.27;;;26.20;99.90;;;;;;5050001;28;21049;-53
2023/08/16 09:32:22;;;;;;;6.87;3.27;;;26.00;99.90;;;;;;5056050;28;20465;-52
2023/08/16 09:34:49;;;;;;;6.03;3.00;;;26.00;99.90;;;;;;5066457;28;20496;-52
2023/08/16 09:37:20;;;;;;;4.70;3.20;;;26.20;99.90;;;;;;5067533;28;20504;-52
2023/08/16 09:39:55;;;;;;;4.13;3.00;;;26.20;99.90;;;;;;5060930;28;20461;-52
2023/08/16 09:42:30;;;;;;;5.67;3.10;;;26.30;99.90;;;;;;5048047;28;20461;-53
2023/08/16 09:44:58;;;;;;;10.13;3.27;;;26.30;99.90;;;;;;5051727;28;20438;-52
2023/08/16 09:47:25;;;;;;;11.13;3.40;;;26.30;99.90;;;;;;5052436;28;20549;-52
2023/08/16 09:49:52;;;;;;;2.87;2.60;;;26.50;99.90;;;;;;5051607;28;21014;-52
2023/08/16 09:52:19;;;;;;;3.10;2.70;;;26.80;99.90;;;;;;5049207;28;20492;-53
2023/08/16 09:54:48;;;;;;;2.63;2.43;;;27.70;41.50;;;;;;5048960;28;20450;-53
2023/08/16 09:57:15;;;;;;;2.60;2.40;;;28.50;56.20;;;;;;5051520;28;20493;-52
2023/08/16 09:59:43;;;;;;;4.13;2.20;;;27.90;68.00;;;;;;5049286;28;20911;-53
2023/08/16 10:02:13;;;;;;;6.33;2.70;;;27.90;69.40;;;;;;5043781;28;20481;-52
2023/08/16 10:04:41;;;;;;;2.27;2.10;;;27.60;66.30;;;;;;5043786;28;20551;-52
2023/08/16 10:07:08;;;;;;;4.00;2.80;;;27.80;83.50;;;;;;5050573;28;20889;-52
2023/08/16 10:09:35;;;;;;;2.33;2.10;;;28.70;79.50;;;;;;5045553;28;20509;-52
2023/08/16 10:12:03;;;;;;;9.77;2.23;;;28.30;75.00;;;;;;5035363;28;20498;-53
2023/08/16 10:14:31;;;;;;;7.93;2.30;;;28.50;81.40;;;;;;5052190;28;20453;-52
2023/08/16 10:17:01;;;;;;;4.77;2.60;;;28.60;97.10;;;;;;5052754;28;20474;-51
2023/08/16 10:19:32;;;;;;;5.47;2.77;;;28.50;82.60;;;;;;5051652;28;20576;-53
2023/08/16 10:22:00;;;;;;;2.53;2.33;;;29.00;90.90;;;;;;5040240;28;20541;-53
2023/08/16 10:24:33;;;;;;;2.30;2.20;;;29.20;99.90;;;;;;5051967;28;20526;-53
2023/08/16 10:27:04;;;;;;;4.40;2.60;;;29.10;99.90;;;;;;5052860;28;20505;-52
2023/08/16 10:29:37;;;;;;;2.77;2.47;;;29.10;99.90;;;;;;5050942;28;21058;-53
2023/08/16 10:32:09;;;;;;;3.70;3.33;;;28.90;99.90;;;;;;5041790;28;20442;-51
2023/08/16 10:34:37;;;;;;;2.47;2.37;;;29.20;99.90;;;;;;5033269;28;20510;-52
2023/08/16 10:37:04;;;;;;;4.03;2.00;;;29.50;99.90;;;;;;5048850;28;20920;-52
2023/08/16 10:39:31;;;;;;;2.67;2.47;;;29.20;99.90;;;;;;5051518;28;20909;-52
2023/08/16 10:42:05;;;;;;;2.97;2.43;;;28.40;97.00;;;;;;5049628;28;20497;-52
2023/08/16 10:44:31;;;;;;;2.10;2.00;;;27.90;86.90;;;;;;5051724;28;20434;-53
2023/08/16 10:46:58;;;;;;;3.30;2.87;;;27.50;77.00;;;;;;5049702;28;20536;-52
2023/08/16 10:49:37;;;;;;;4.67;2.10;;;27.00;64.10;;;;;;5049058;28;20520;-52
2023/08/16 10:52:04;;;;;;;5.43;3.33;;;26.50;66.00;;;;;;5042232;28;20493;-52
2023/08/16 10:54:33;;;;;;;2.60;2.40;;;26.30;60.50;;;;;;5049905;28;20454;-52
2023/08/16 10:57:02;;;;;;;4.67;3.07;;;26.10;47.70;;;;;;5049571;28;20469;-53
2023/08/16 10:59:37;;;;;;;3.77;2.90;;;25.80;41.80;;;;;;5051034;28;20505;-52
2023/08/16 11:02:09;;;;;;;5.83;3.00;;;25.70;95.70;;;;;;5052357;28;20453;-53
2023/08/16 11:04:38;;;;;;;5.37;2.40;;;25.60;26.30;;;;;;5051754;28;20446;-52
2023/08/16 11:07:06;;;;;;;3.70;2.50;;;25.50;99.90;;;;;;5049759;28;20955;-51
2023/08/16 11:09:33;;;;;;;2.80;2.60;;;25.50;95.60;;;;;;5043232;28;21046;-52
2023/08/16 11:12:02;;;;;;;2.70;2.50;;;25.40;99.90;;;;;;5050458;28;20442;-53
2023/08/16 11:14:29;;;;;;;3.53;3.00;;;25.40;84.50;;;;;;5047127;28;20462;-53
2023/08/16 11:16:56;;;;;;;4.20;2.77;;;25.50;80.90;;;;;;5050569;28;20461;-52
2023/08/16 11:19:22;;;;;;;3.47;2.70;;;25.60;22.30;;;;;;5050682;28;20570;-52
2023/08/16 11:21:51;;;;;;;2.67;2.50;;;25.70;25.20;;;;;;5049513;28;20537;-52
2023/08/16 11:24:18;;;;;;;3.63;2.50;;;26.10;45.50;;;;;;5047871;28;20458;-53
2023/08/16 11:26:44;;;;;;;2.53;2.33;;;26.70;66.60;;;;;;5045789;28;20468;-52
2023/08/16 11:29:11;;;;;;;4.20;3.00;;;26.80;75.90;;;;;;5052722;28;20928;-52
2023/08/16 11:31:38;;;;;;;3.20;2.50;;;27.10;65.70;;;;;;5052926;28;20488;-52
2023/08/16 11:34:10;;;;;;;2.83;2.60;;;27.30;70.20;;;;;;5054218;28;20462;-52
2023/08/16 11:36:37;;;;;;;5.63;2.40;;;27.40;73.80;;;;;;5052909;28;20549;-52
2023/08/16 11:39:08;;;;;;;3.07;2.80;;;27.80;61.00;;;;;;5051036;28;20958;-52
2023/08/16 11:41:35;;;;;;;2.60;2.40;;;27.90;81.10;;;;;;5051327;28;20450;-52
2023/08/16 11:44:01;;;;;;;4.80;2.73;;;28.00;93.70;;;;;;5053642;28;20487;-57
2023/08/16 11:46:28;;;;;;;4.60;3.00;;;27.80;89.10;;;;;;5041687;28;20449;-52
2023/08/16 11:48:55;;;;;;;3.23;2.40;;;27.30;73.40;;;;;;5053818;28;20477;-53
2023/08/16 11:51:22;;;;;;;2.63;2.43;;;27.10;66.80;;;;;;5054492;28;20462;-53
2023/08/16 11:53:48;;;;;;;3.00;2.70;;;26.80;64.50;;;;;;5051385;28;20523;-53
2023/08/16 11:56:16;;;;;;;2.73;2.40;;;26.40;54.10;;;;;;5051364;28;21077;-52
2023/08/16 11:58:44;;;;;;;4.27;3.17;;;26.30;55.10;;;;;;5043779;28;20482;-52
2023/08/16 12:01:14;;;;;;;2.90;2.60;;;26.20;62.20;;;;;;5046507;28;20523;-52
2023/08/16 12:03:41;;;;;;;2.90;2.43;;;26.20;57.40;;;;;;5055081;28;20580;-52
2023/08/16 12:06:09;;;;;;;2.10;1.90;;;26.30;50.90;;;;;;5056576;28;20450;-51
2023/08/16 12:08:37;;;;;;;4.10;2.67;;;26.40;66.10;;;;;;5056562;28;20481;-53
2023/08/16 12:11:04;;;;;;;5.77;2.77;;;26.60;69.90;;;;;;5047302;28;20492;-52
2023/08/16 12:13:35;;;;;;;2.77;2.57;;;26.50;80.20;;;;;;5034808;28;20535;-52
2023/08/16 12:16:02;;;;;;;2.53;2.30;;;26.40;73.20;;;;;;5035421;28;20438;-52
2023/08/16 12:18:28;;;;;;;2.97;2.50;;;26.40;64.00;;;;;;5042420;28;20527;-53
2023/08/16 12:20:56;;;;;;;5.00;2.40;;;26.40;80.30;;;;;;5045760;28;20545;-52
2023/08/16 12:23:23;;;;;;;3.90;2.27;;;26.50;68.20;;;;;;5039681;28;20461;-53
2023/08/16 12:25:49;;;;;;;3.57;2.67;;;26.80;84.90;;;;;;5053558;28;20468;-52
2023/08/16 12:28:16;;;;;;;3.83;2.53;;;27.30;77.60;;;;;;5035465;28;20596;-53
2023/08/16 12:30:44;;;;;;;3.63;2.27;;;27.80;99.90;;;;;;5043005;28;20517;-53
2023/08/16 12:33:12;;;;;;;2.20;2.00;;;28.20;99.90;;;;;;5054980;28;20446;-53
2023/08/16 12:35:38;;;;;;;2.03;1.90;;;28.60;99.90;;;;;;5050573;28;20807;-54
2023/08/16 12:38:05;;;;;;;2.20;2.00;;;28.70;99.90;;;;;;5052022;28;20592;-52
2023/08/16 12:40:32;;;;;;;3.00;2.70;;;28.60;99.90;;;;;;5052840;28;20544;-54
2023/08/16 12:43:00;;;;;;;2.97;2.47;;;28.70;99.90;;;;;;5053279;28;20505;-52